sensor_id;sensor_type;location;lat;lon;timestamp;temperature;humidity
38726;DHT22;24474;48.906;8.808;2022-10-13T00:00:39;12.00;99.90
38726;DHT22;24474;48.906;8.808;2022-10-13T00:03:06;12.00;99.90
38726;DHT22;24474;48.906;8.808;2022-10-13T00:05:32;12.00;99.90
38726;DHT22;24474;48.906;8.808;2022-10-13T00:07:58;12.00;99.90
38726;DHT22;24474;48.906;8.808;2022-10-13T00:10:26;11.90;99.90
38726;DHT22;24474;48.906;8.808;2022-10-13T00:12:52;11.90;99.90
38726;DHT22;24474;48.906;8.808;2022-10-13T00:15:20;11.90;99.90
38726;DHT22;24474;48.906;8.808;2022-10-13T00:17:46;11.80;99.90
38726;DHT22;24474;48.906;8.808;2022-10-13T00:20:11;11.80;99.90
38726;DHT22;24474;48.906;8.808;2022-10-13T00:26:06;11.80;99.90
38726;DHT22;24474;48.906;8.808;2022-10-13T00:28:33;11.70;99.90
38726;DHT22;24474;48.906;8.808;2022-10-13T00:31:00;11.70;99.90
38726;DHT22;24474;48.906;8.808;2022-10-13T00:33:25;11.60;99.90
38726;DHT22;24474;48.906;8.808;2022-10-13T00:35:52;11.60;99.90
38726;DHT22;24474;48.906;8.808;2022-10-13T00:38:21;11.50;99.90
38726;DHT22;24474;48.906;8.808;2022-10-13T00:40:55;11.50;99.90
38726;DHT22;24474;48.906;8.808;2022-10-13T00:46:33;11.50;99.90
38726;DHT22;24474;48.906;8.808;2022-10-13T00:49:09;11.50;99.90
38726;DHT22;24474;48.906;8.808;2022-10-13T00:51:41;11.50;99.90
38726;DHT22;24474;48.906;8.808;2022-10-13T00:54:20;11.40;99.90
38726;DHT22;24474;48.906;8.808;2022-10-13T00:56:49;11.30;99.90
38726;DHT22;24474;48.906;8.808;2022-10-13T00:59:27;11.30;99.90
38726;DHT22;24474;48.906;8.808;2022-10-13T01:01:54;11.30;99.90
38726;DHT22;24474;48.906;8.808;2022-10-13T01:04:25;11.30;99.90
38726;DHT22;24474;48.906;8.808;2022-10-13T01:06:54;11.20;99.90
38726;DHT22;24474;48.906;8.808;2022-10-13T01:09:20;11.30;99.90
38726;DHT22;24474;48.906;8.808;2022-10-13T01:12:05;11.20;99.90
38726;DHT22;24474;48.906;8.808;2022-10-13T01:21:05;11.20;99.90
38726;DHT22;24474;48.906;8.808;2022-10-13T01:32:56;11.10;99.90
38726;DHT22;24474;48.906;8.808;2022-10-13T01:35:41;11.10;99.90
38726;DHT22;24474;48.906;8.808;2022-10-13T01:41:24;11.00;99.90
38726;DHT22;24474;48.906;8.808;2022-10-13T01:44:10;11.10;99.90
38726;DHT22;24474;48.906;8.808;2022-10-13T01:46:41;11.10;99.90
38726;DHT22;24474;48.906;8.808;2022-10-13T01:49:13;11.10;99.90
38726;DHT22;24474;48.906;8.808;2022-10-13T01:51:43;11.10;99.90
38726;DHT22;24474;48.906;8.808;2022-10-13T01:54:09;11.10;99.90
38726;DHT22;24474;48.906;8.808;2022-10-13T01:56:36;11.10;99.90
38726;DHT22;24474;48.906;8.808;2022-10-13T01:59:14;11.10;99.90
38726;DHT22;24474;48.906;8.808;2022-10-13T02:08:35;11.20;99.90
38726;DHT22;24474;48.906;8.808;2022-10-13T02:11:18;11.10;99.90
38726;DHT22;24474;48.906;8.808;2022-10-13T02:14:03;11.10;99.90
38726;DHT22;24474;48.906;8.808;2022-10-13T02:16:37;11.10;99.90
38726;DHT22;24474;48.906;8.808;2022-10-13T02:19:05;11.10;99.90
38726;DHT22;24474;48.906;8.808;2022-10-13T02:21:32;11.10;99.90
38726;DHT22;24474;48.906;8.808;2022-10-13T02:24:01;11.10;99.90
38726;DHT22;24474;48.906;8.808;2022-10-13T02:26:34;11.10;99.90
38726;DHT22;24474;48.906;8.808;2022-10-13T02:29:21;11.10;99.90
38726;DHT22;24474;48.906;8.808;2022-10-13T02:31:47;11.10;99.90
38726;DHT22;24474;48.906;8.808;2022-10-13T02:34:13;11.20;99.90
38726;DHT22;24474;48.906;8.808;2022-10-13T02:36:39;11.20;99.90
38726;DHT22;24474;48.906;8.808;2022-10-13T02:39:15;11.10;99.90
38726;DHT22;24474;48.906;8.808;2022-10-13T02:41:43;11.10;99.90
38726;DHT22;24474;48.906;8.808;2022-10-13T02:44:09;11.10;99.90
38726;DHT22;24474;48.906;8.808;2022-10-13T02:46:34;11.10;99.90
38726;DHT22;24474;48.906;8.808;2022-10-13T02:49:00;11.00;99.90
38726;DHT22;24474;48.906;8.808;2022-10-13T02:51:27;11.10;99.90
38726;DHT22;24474;48.906;8.808;2022-10-13T02:53:55;11.00;99.90
38726;DHT22;24474;48.906;8.808;2022-10-13T02:56:20;11.00;99.90
38726;DHT22;24474;48.906;8.808;2022-10-13T02:58:46;11.00;99.90
38726;DHT22;24474;48.906;8.808;2022-10-13T03:01:13;10.90;99.90
38726;DHT22;24474;48.906;8.808;2022-10-13T03:03:39;10.90;99.90
38726;DHT22;24474;48.906;8.808;2022-10-13T03:06:05;10.90;99.90
38726;DHT22;24474;48.906;8.808;2022-10-13T03:08:32;10.90;99.90
38726;DHT22;24474;48.906;8.808;2022-10-13T03:11:00;10.80;99.90
38726;DHT22;24474;48.906;8.808;2022-10-13T03:13:26;10.80;99.90
38726;DHT22;24474;48.906;8.808;2022-10-13T03:15:52;10.80;99.90
38726;DHT22;24474;48.906;8.808;2022-10-13T03:18:17;10.80;99.90
38726;DHT22;24474;48.906;8.808;2022-10-13T03:20:43;10.80;99.90
38726;DHT22;24474;48.906;8.808;2022-10-13T03:23:09;10.80;99.90
38726;DHT22;24474;48.906;8.808;2022-10-13T03:25:36;10.80;99.90
38726;DHT22;24474;48.906;8.808;2022-10-13T03:28:01;10.90;99.90
38726;DHT22;24474;48.906;8.808;2022-10-13T03:30:27;10.90;99.90
38726;DHT22;24474;48.906;8.808;2022-10-13T03:32:55;10.90;99.90
38726;DHT22;24474;48.906;8.808;2022-10-13T03:35:21;10.90;99.90
38726;DHT22;24474;48.906;8.808;2022-10-13T03:37:46;10.90;99.90
38726;DHT22;24474;48.906;8.808;2022-10-13T03:40:15;10.90;99.90
38726;DHT22;24474;48.906;8.808;2022-10-13T03:42:40;11.00;99.90
38726;DHT22;24474;48.906;8.808;2022-10-13T03:45:06;11.00;99.90
38726;DHT22;24474;48.906;8.808;2022-10-13T03:47:36;11.00;99.90
38726;DHT22;24474;48.906;8.808;2022-10-13T03:50:04;11.10;99.90
38726;DHT22;24474;48.906;8.808;2022-10-13T03:52:30;11.10;99.90
38726;DHT22;24474;48.906;8.808;2022-10-13T03:54:55;11.10;99.90
38726;DHT22;24474;48.906;8.808;2022-10-13T03:57:21;11.10;99.90
38726;DHT22;24474;48.906;8.808;2022-10-13T03:59:48;11.10;99.90
38726;DHT22;24474;48.906;8.808;2022-10-13T04:02:15;11.00;99.90
38726;DHT22;24474;48.906;8.808;2022-10-13T04:04:41;11.00;99.90
38726;DHT22;24474;48.906;8.808;2022-10-13T04:07:07;11.00;99.90
38726;DHT22;24474;48.906;8.808;2022-10-13T04:09:33;10.90;99.90
38726;DHT22;24474;48.906;8.808;2022-10-13T04:12:02;10.90;99.90
38726;DHT22;24474;48.906;8.808;2022-10-13T04:14:29;10.90;99.90
38726;DHT22;24474;48.906;8.808;2022-10-13T04:16:56;10.90;99.90
38726;DHT22;24474;48.906;8.808;2022-10-13T04:19:23;10.90;99.90
38726;DHT22;24474;48.906;8.808;2022-10-13T04:21:50;10.90;99.90
38726;DHT22;24474;48.906;8.808;2022-10-13T04:24:17;10.90;99.90
38726;DHT22;24474;48.906;8.808;2022-10-13T04:26:44;10.90;99.90
38726;DHT22;24474;48.906;8.808;2022-10-13T04:29:12;10.90;99.90
38726;DHT22;24474;48.906;8.808;2022-10-13T04:31:39;11.00;99.90
38726;DHT22;24474;48.906;8.808;2022-10-13T04:34:09;10.90;99.90
38726;DHT22;24474;48.906;8.808;2022-10-13T04:36:35;10.90;99.90
38726;DHT22;24474;48.906;8.808;2022-10-13T04:39:01;10.90;99.90
38726;DHT22;24474;48.906;8.808;2022-10-13T04:41:27;10.90;99.90
38726;DHT22;24474;48.906;8.808;2022-10-13T04:43:55;10.90;99.90
38726;DHT22;24474;48.906;8.808;2022-10-13T04:46:24;10.90;99.90
38726;DHT22;24474;48.906;8.808;2022-10-13T04:48:52;10.90;99.90
38726;DHT22;24474;48.906;8.808;2022-10-13T04:51:21;10.90;99.90
38726;DHT22;24474;48.906;8.808;2022-10-13T04:53:47;10.90;99.90
38726;DHT22;24474;48.906;8.808;2022-10-13T04:56:16;10.80;99.90
38726;DHT22;24474;48.906;8.808;2022-10-13T04:58:45;10.80;99.90
38726;DHT22;24474;48.906;8.808;2022-10-13T05:01:17;10.80;99.90
38726;DHT22;24474;48.906;8.808;2022-10-13T05:03:44;10.70;99.90
38726;DHT22;24474;48.906;8.808;2022-10-13T05:06:19;10.80;99.90
38726;DHT22;24474;48.906;8.808;2022-10-13T05:08:45;10.90;99.90
38726;DHT22;24474;48.906;8.808;2022-10-13T05:11:11;10.80;99.90
38726;DHT22;24474;48.906;8.808;2022-10-13T05:13:38;10.80;99.90
38726;DHT22;24474;48.906;8.808;2022-10-13T05:16:11;10.80;99.90
38726;DHT22;24474;48.906;8.808;2022-10-13T05:18:37;10.80;99.90
38726;DHT22;24474;48.906;8.808;2022-10-13T05:21:11;10.80;99.90
38726;DHT22;24474;48.906;8.808;2022-10-13T05:23:38;10.70;99.90
38726;DHT22;24474;48.906;8.808;2022-10-13T05:26:08;10.70;99.90
38726;DHT22;24474;48.906;8.808;2022-10-13T05:28:34;10.80;99.90
38726;DHT22;24474;48.906;8.808;2022-10-13T05:31:16;10.80;99.90
38726;DHT22;24474;48.906;8.808;2022-10-13T05:33:43;10.80;99.90
38726;DHT22;24474;48.906;8.808;2022-10-13T05:36:12;10.80;99.90
38726;DHT22;24474;48.906;8.808;2022-10-13T05:38:38;10.80;99.90
38726;DHT22;24474;48.906;8.808;2022-10-13T05:41:07;10.80;99.90
38726;DHT22;24474;48.906;8.808;2022-10-13T05:43:35;10.80;99.90
38726;DHT22;24474;48.906;8.808;2022-10-13T05:46:02;10.80;99.90
38726;DHT22;24474;48.906;8.808;2022-10-13T05:48:28;10.80;99.90
38726;DHT22;24474;48.906;8.808;2022-10-13T05:50:57;10.80;99.90
38726;DHT22;24474;48.906;8.808;2022-10-13T05:53:25;10.80;99.90
38726;DHT22;24474;48.906;8.808;2022-10-13T05:55:52;10.80;99.90
38726;DHT22;24474;48.906;8.808;2022-10-13T05:58:21;10.90;99.90
38726;DHT22;24474;48.906;8.808;2022-10-13T06:00:49;10.90;99.90
38726;DHT22;24474;48.906;8.808;2022-10-13T06:03:20;10.90;99.90
38726;DHT22;24474;48.906;8.808;2022-10-13T06:05:49;11.00;99.90
38726;DHT22;24474;48.906;8.808;2022-10-13T06:08:18;11.00;99.90
38726;DHT22;24474;48.906;8.808;2022-10-13T06:10:45;11.00;99.90
38726;DHT22;24474;48.906;8.808;2022-10-13T06:13:11;11.00;99.90
38726;DHT22;24474;48.906;8.808;2022-10-13T06:15:38;11.00;99.90
38726;DHT22;24474;48.906;8.808;2022-10-13T06:18:10;11.10;99.90
38726;DHT22;24474;48.906;8.808;2022-10-13T06:20:36;11.10;99.90
38726;DHT22;24474;48.906;8.808;2022-10-13T06:23:05;11.10;99.90
38726;DHT22;24474;48.906;8.808;2022-10-13T06:25:31;11.10;99.90
38726;DHT22;24474;48.906;8.808;2022-10-13T06:27:57;11.10;99.90
38726;DHT22;24474;48.906;8.808;2022-10-13T06:30:24;11.10;99.90
38726;DHT22;24474;48.906;8.808;2022-10-13T06:32:50;11.10;99.90
38726;DHT22;24474;48.906;8.808;2022-10-13T06:35:17;11.20;99.90
38726;DHT22;24474;48.906;8.808;2022-10-13T06:37:43;11.30;99.90
38726;DHT22;24474;48.906;8.808;2022-10-13T06:40:10;11.30;99.90
38726;DHT22;24474;48.906;8.808;2022-10-13T06:42:36;11.30;99.90
38726;DHT22;24474;48.906;8.808;2022-10-13T06:45:02;11.20;99.90
38726;DHT22;24474;48.906;8.808;2022-10-13T06:47:27;11.30;99.90
38726;DHT22;24474;48.906;8.808;2022-10-13T06:49:53;11.30;99.90
38726;DHT22;24474;48.906;8.808;2022-10-13T06:52:19;11.30;99.90
38726;DHT22;24474;48.906;8.808;2022-10-13T06:54:44;11.30;99.90
38726;DHT22;24474;48.906;8.808;2022-10-13T06:57:10;11.30;99.90
38726;DHT22;24474;48.906;8.808;2022-10-13T06:59:36;11.40;99.90
38726;DHT22;24474;48.906;8.808;2022-10-13T07:02:02;11.40;99.90
38726;DHT22;24474;48.906;8.808;2022-10-13T07:04:28;11.40;99.90
38726;DHT22;24474;48.906;8.808;2022-10-13T07:06:54;11.50;99.90
38726;DHT22;24474;48.906;8.808;2022-10-13T07:09:19;11.50;99.90
38726;DHT22;24474;48.906;8.808;2022-10-13T07:11:46;11.50;99.90
38726;DHT22;24474;48.906;8.808;2022-10-13T07:14:12;11.50;99.90
38726;DHT22;24474;48.906;8.808;2022-10-13T07:16:38;11.50;99.90
38726;DHT22;24474;48.906;8.808;2022-10-13T07:19:04;11.50;99.90
38726;DHT22;24474;48.906;8.808;2022-10-13T07:21:30;11.60;99.90
38726;DHT22;24474;48.906;8.808;2022-10-13T07:24:00;11.60;99.90
38726;DHT22;24474;48.906;8.808;2022-10-13T07:26:25;11.60;99.90
38726;DHT22;24474;48.906;8.808;2022-10-13T07:28:54;11.70;99.90
38726;DHT22;24474;48.906;8.808;2022-10-13T07:31:20;11.80;99.90
38726;DHT22;24474;48.906;8.808;2022-10-13T07:33:51;11.80;99.90
38726;DHT22;24474;48.906;8.808;2022-10-13T07:36:17;11.70;99.90
38726;DHT22;24474;48.906;8.808;2022-10-13T07:38:43;11.80;99.90
38726;DHT22;24474;48.906;8.808;2022-10-13T07:41:10;11.80;99.90
38726;DHT22;24474;48.906;8.808;2022-10-13T07:43:36;11.90;99.90
38726;DHT22;24474;48.906;8.808;2022-10-13T07:46:02;11.90;99.90
38726;DHT22;24474;48.906;8.808;2022-10-13T07:48:32;11.90;99.90
38726;DHT22;24474;48.906;8.808;2022-10-13T07:50:58;12.00;99.90
38726;DHT22;24474;48.906;8.808;2022-10-13T07:53:23;12.00;99.90
38726;DHT22;24474;48.906;8.808;2022-10-13T07:55:49;12.10;99.90
38726;DHT22;24474;48.906;8.808;2022-10-13T07:58:15;12.10;99.90
38726;DHT22;24474;48.906;8.808;2022-10-13T08:00:41;12.20;99.90
38726;DHT22;24474;48.906;8.808;2022-10-13T08:03:06;12.30;99.90
38726;DHT22;24474;48.906;8.808;2022-10-13T08:05:32;12.40;99.90
38726;DHT22;24474;48.906;8.808;2022-10-13T08:07:58;12.50;99.90
38726;DHT22;24474;48.906;8.808;2022-10-13T08:10:24;12.60;99.90
38726;DHT22;24474;48.906;8.808;2022-10-13T08:12:49;12.70;99.90
38726;DHT22;24474;48.906;8.808;2022-10-13T08:15:15;12.70;99.90
38726;DHT22;24474;48.906;8.808;2022-10-13T08:17:42;12.70;99.90
38726;DHT22;24474;48.906;8.808;2022-10-13T08:20:08;12.80;99.90
38726;DHT22;24474;48.906;8.808;2022-10-13T08:22:35;12.80;99.90
38726;DHT22;24474;48.906;8.808;2022-10-13T08:25:01;12.90;99.90
38726;DHT22;24474;48.906;8.808;2022-10-13T08:27:27;12.90;99.90
38726;DHT22;24474;48.906;8.808;2022-10-13T08:29:53;13.00;99.90
38726;DHT22;24474;48.906;8.808;2022-10-13T08:32:22;13.10;99.90
38726;DHT22;24474;48.906;8.808;2022-10-13T08:34:48;13.10;99.90
38726;DHT22;24474;48.906;8.808;2022-10-13T08:37:16;13.10;99.90
38726;DHT22;24474;48.906;8.808;2022-10-13T08:39:42;13.00;99.90
38726;DHT22;24474;48.906;8.808;2022-10-13T08:42:20;13.20;99.90
38726;DHT22;24474;48.906;8.808;2022-10-13T08:44:56;13.20;99.90
38726;DHT22;24474;48.906;8.808;2022-10-13T08:48:02;13.30;99.90
38726;DHT22;24474;48.906;8.808;2022-10-13T08:50:23;13.40;99.90
38726;DHT22;24474;48.906;8.808;2022-10-13T08:52:56;13.40;99.90
38726;DHT22;24474;48.906;8.808;2022-10-13T08:55:48;13.50;99.90
38726;DHT22;24474;48.906;8.808;2022-10-13T08:58:25;13.50;99.90
38726;DHT22;24474;48.906;8.808;2022-10-13T09:06:17;13.60;99.90
38726;DHT22;24474;48.906;8.808;2022-10-13T09:08:48;13.70;99.90
38726;DHT22;24474;48.906;8.808;2022-10-13T09:11:15;13.80;99.90
38726;DHT22;24474;48.906;8.808;2022-10-13T09:13:40;13.70;99.90
38726;DHT22;24474;48.906;8.808;2022-10-13T09:16:07;13.90;99.90
38726;DHT22;24474;48.906;8.808;2022-10-13T09:18:33;13.90;99.90
38726;DHT22;24474;48.906;8.808;2022-10-13T09:21:21;13.90;99.90
38726;DHT22;24474;48.906;8.808;2022-10-13T09:23:49;14.00;99.90
38726;DHT22;24474;48.906;8.808;2022-10-13T09:26:23;14.10;99.90
38726;DHT22;24474;48.906;8.808;2022-10-13T09:28:50;14.10;99.90
38726;DHT22;24474;48.906;8.808;2022-10-13T09:31:23;14.20;99.90
38726;DHT22;24474;48.906;8.808;2022-10-13T09:33:57;14.30;99.90
38726;DHT22;24474;48.906;8.808;2022-10-13T09:36:25;14.30;99.90
38726;DHT22;24474;48.906;8.808;2022-10-13T09:39:14;14.30;99.90
38726;DHT22;24474;48.906;8.808;2022-10-13T09:41:43;14.30;99.90
38726;DHT22;24474;48.906;8.808;2022-10-13T09:44:29;14.30;99.90
38726;DHT22;24474;48.906;8.808;2022-10-13T09:47:01;14.30;99.90
38726;DHT22;24474;48.906;8.808;2022-10-13T09:49:40;14.40;99.90
38726;DHT22;24474;48.906;8.808;2022-10-13T09:52:15;14.40;99.90
38726;DHT22;24474;48.906;8.808;2022-10-13T09:54:48;14.40;99.90
38726;DHT22;24474;48.906;8.808;2022-10-13T09:57:36;14.40;99.90
38726;DHT22;24474;48.906;8.808;2022-10-13T10:02:36;14.50;99.90
38726;DHT22;24474;48.906;8.808;2022-10-13T10:07:45;14.60;99.90
38726;DHT22;24474;48.906;8.808;2022-10-13T10:10:33;14.60;99.90
38726;DHT22;24474;48.906;8.808;2022-10-13T10:13:00;14.60;99.90
38726;DHT22;24474;48.906;8.808;2022-10-13T10:18:31;14.70;99.90
38726;DHT22;24474;48.906;8.808;2022-10-13T10:21:15;14.70;99.90
38726;DHT22;24474;48.906;8.808;2022-10-13T10:23:50;14.80;99.90
38726;DHT22;24474;48.906;8.808;2022-10-13T10:26:18;14.80;99.90
38726;DHT22;24474;48.906;8.808;2022-10-13T10:32:01;14.90;99.90
38726;DHT22;24474;48.906;8.808;2022-10-13T10:34:35;14.90;99.90
38726;DHT22;24474;48.906;8.808;2022-10-13T10:45:49;15.10;99.90
38726;DHT22;24474;48.906;8.808;2022-10-13T10:48:30;15.10;99.90
38726;DHT22;24474;48.906;8.808;2022-10-13T10:50:57;15.10;99.90
38726;DHT22;24474;48.906;8.808;2022-10-13T10:53:41;15.20;99.90
38726;DHT22;24474;48.906;8.808;2022-10-13T10:58:52;15.30;99.90
38726;DHT22;24474;48.906;8.808;2022-10-13T11:02:08;15.30;99.90
38726;DHT22;24474;48.906;8.808;2022-10-13T11:14:47;15.50;99.90
38726;DHT22;24474;48.906;8.808;2022-10-13T11:17:34;15.50;99.90
38726;DHT22;24474;48.906;8.808;2022-10-13T11:25:43;15.60;99.90
38726;DHT22;24474;48.906;8.808;2022-10-13T11:30:54;15.70;99.90
38726;DHT22;24474;48.906;8.808;2022-10-13T11:44:58;15.90;99.90
38726;DHT22;24474;48.906;8.808;2022-10-13T11:50:21;15.90;99.90
38726;DHT22;24474;48.906;8.808;2022-10-13T11:53:09;15.90;99.90
38726;DHT22;24474;48.906;8.808;2022-10-13T11:55:57;15.90;99.90
38726;DHT22;24474;48.906;8.808;2022-10-13T11:58:28;15.90;99.90
38726;DHT22;24474;48.906;8.808;2022-10-13T12:01:11;15.90;99.90
38726;DHT22;24474;48.906;8.808;2022-10-13T12:03:39;15.90;99.90
38726;DHT22;24474;48.906;8.808;2022-10-13T12:06:30;16.00;99.90
38726;DHT22;24474;48.906;8.808;2022-10-13T12:09:01;16.00;99.90
38726;DHT22;24474;48.906;8.808;2022-10-13T12:11:30;16.10;99.90
38726;DHT22;24474;48.906;8.808;2022-10-13T12:13:56;16.10;99.90
38726;DHT22;24474;48.906;8.808;2022-10-13T12:16:22;16.10;99.90
38726;DHT22;24474;48.906;8.808;2022-10-13T12:18:48;16.00;99.90
38726;DHT22;24474;48.906;8.808;2022-10-13T12:21:18;16.10;99.90
38726;DHT22;24474;48.906;8.808;2022-10-13T12:23:46;16.20;99.90
38726;DHT22;24474;48.906;8.808;2022-10-13T12:26:15;16.20;99.90
38726;DHT22;24474;48.906;8.808;2022-10-13T12:28:55;16.20;99.90
38726;DHT22;24474;48.906;8.808;2022-10-13T12:31:27;16.30;99.90
38726;DHT22;24474;48.906;8.808;2022-10-13T12:33:56;16.30;99.90
38726;DHT22;24474;48.906;8.808;2022-10-13T12:36:33;16.40;99.90
38726;DHT22;24474;48.906;8.808;2022-10-13T12:39:12;16.40;99.90
38726;DHT22;24474;48.906;8.808;2022-10-13T12:41:46;16.40;99.90
38726;DHT22;24474;48.906;8.808;2022-10-13T12:44:31;16.40;99.90
38726;DHT22;24474;48.906;8.808;2022-10-13T12:46:59;16.40;99.90
38726;DHT22;24474;48.906;8.808;2022-10-13T12:52:15;16.40;99.90
38726;DHT22;24474;48.906;8.808;2022-10-13T12:54:55;16.40;99.90
38726;DHT22;24474;48.906;8.808;2022-10-13T12:57:30;16.50;99.90
38726;DHT22;24474;48.906;8.808;2022-10-13T13:00:21;16.40;99.90
38726;DHT22;24474;48.906;8.808;2022-10-13T13:02:52;16.40;99.90
38726;DHT22;24474;48.906;8.808;2022-10-13T13:05:41;16.40;99.90
38726;DHT22;24474;48.906;8.808;2022-10-13T13:08:28;16.40;99.90
38726;DHT22;24474;48.906;8.808;2022-10-13T13:11:03;16.40;99.90
38726;DHT22;24474;48.906;8.808;2022-10-13T13:13:29;16.40;99.90
38726;DHT22;24474;48.906;8.808;2022-10-13T13:16:15;16.40;99.90
38726;DHT22;24474;48.906;8.808;2022-10-13T13:18:45;16.40;99.90
38726;DHT22;24474;48.906;8.808;2022-10-13T13:21:13;16.40;99.90
38726;DHT22;24474;48.906;8.808;2022-10-13T13:23:39;16.30;99.90
38726;DHT22;24474;48.906;8.808;2022-10-13T13:26:15;16.40;99.90
38726;DHT22;24474;48.906;8.808;2022-10-13T13:31:10;16.30;99.90
38726;DHT22;24474;48.906;8.808;2022-10-13T13:33:36;16.30;99.90
38726;DHT22;24474;48.906;8.808;2022-10-13T13:36:02;16.30;99.90
38726;DHT22;24474;48.906;8.808;2022-10-13T13:38:27;16.30;99.90
38726;DHT22;24474;48.906;8.808;2022-10-13T13:40:53;16.30;99.90
38726;DHT22;24474;48.906;8.808;2022-10-13T13:43:18;16.30;99.90
38726;DHT22;24474;48.906;8.808;2022-10-13T13:45:44;16.30;99.90
38726;DHT22;24474;48.906;8.808;2022-10-13T13:48:11;16.40;99.90
38726;DHT22;24474;48.906;8.808;2022-10-13T13:50:37;16.30;99.90
38726;DHT22;24474;48.906;8.808;2022-10-13T13:53:04;16.40;99.90
38726;DHT22;24474;48.906;8.808;2022-10-13T13:55:29;16.40;99.90
38726;DHT22;24474;48.906;8.808;2022-10-13T13:57:56;16.40;99.90
38726;DHT22;24474;48.906;8.808;2022-10-13T14:00:22;16.40;99.90
38726;DHT22;24474;48.906;8.808;2022-10-13T14:02:47;16.40;99.90
38726;DHT22;24474;48.906;8.808;2022-10-13T14:05:13;16.30;99.90
38726;DHT22;24474;48.906;8.808;2022-10-13T14:07:40;16.40;99.90
38726;DHT22;24474;48.906;8.808;2022-10-13T14:10:07;16.40;99.90
38726;DHT22;24474;48.906;8.808;2022-10-13T14:12:33;16.40;99.90
38726;DHT22;24474;48.906;8.808;2022-10-13T14:14:59;16.40;99.90
38726;DHT22;24474;48.906;8.808;2022-10-13T14:17:25;16.40;99.90
38726;DHT22;24474;48.906;8.808;2022-10-13T14:19:51;16.30;99.90
38726;DHT22;24474;48.906;8.808;2022-10-13T14:22:16;16.30;99.90
38726;DHT22;24474;48.906;8.808;2022-10-13T14:24:42;16.30;99.90
38726;DHT22;24474;48.906;8.808;2022-10-13T14:27:08;16.30;99.90
38726;DHT22;24474;48.906;8.808;2022-10-13T14:29:34;16.30;99.90
38726;DHT22;24474;48.906;8.808;2022-10-13T14:32:00;16.30;99.90
38726;DHT22;24474;48.906;8.808;2022-10-13T14:34:26;16.30;99.90
38726;DHT22;24474;48.906;8.808;2022-10-13T14:36:52;16.30;99.90
38726;DHT22;24474;48.906;8.808;2022-10-13T14:39:20;16.40;99.90
38726;DHT22;24474;48.906;8.808;2022-10-13T14:41:46;16.30;99.90
38726;DHT22;24474;48.906;8.808;2022-10-13T14:44:13;16.30;99.90
38726;DHT22;24474;48.906;8.808;2022-10-13T14:46:39;16.30;99.90
38726;DHT22;24474;48.906;8.808;2022-10-13T14:49:05;16.30;99.90
38726;DHT22;24474;48.906;8.808;2022-10-13T14:51:31;16.30;99.90
38726;DHT22;24474;48.906;8.808;2022-10-13T14:53:57;16.30;99.90
38726;DHT22;24474;48.906;8.808;2022-10-13T14:56:25;16.30;99.90
38726;DHT22;24474;48.906;8.808;2022-10-13T14:58:53;16.30;99.90
38726;DHT22;24474;48.906;8.808;2022-10-13T15:01:19;16.20;99.90
38726;DHT22;24474;48.906;8.808;2022-10-13T15:03:45;16.20;99.90
38726;DHT22;24474;48.906;8.808;2022-10-13T15:06:19;16.20;99.90
38726;DHT22;24474;48.906;8.808;2022-10-13T15:08:45;16.20;99.90
38726;DHT22;24474;48.906;8.808;2022-10-13T15:11:11;16.10;99.90
38726;DHT22;24474;48.906;8.808;2022-10-13T15:13:38;16.10;99.90
38726;DHT22;24474;48.906;8.808;2022-10-13T15:16:11;16.10;99.90
38726;DHT22;24474;48.906;8.808;2022-10-13T15:18:38;16.10;99.90
38726;DHT22;24474;48.906;8.808;2022-10-13T15:21:04;16.10;99.90
38726;DHT22;24474;48.906;8.808;2022-10-13T15:23:30;16.10;99.90
38726;DHT22;24474;48.906;8.808;2022-10-13T15:25:58;16.10;99.90
38726;DHT22;24474;48.906;8.808;2022-10-13T15:28:26;16.00;99.90
38726;DHT22;24474;48.906;8.808;2022-10-13T15:30:52;16.00;99.90
38726;DHT22;24474;48.906;8.808;2022-10-13T15:33:21;16.00;99.90
38726;DHT22;24474;48.906;8.808;2022-10-13T15:35:51;16.00;99.90
38726;DHT22;24474;48.906;8.808;2022-10-13T15:38:18;16.00;99.90
38726;DHT22;24474;48.906;8.808;2022-10-13T15:40:44;16.00;99.90
38726;DHT22;24474;48.906;8.808;2022-10-13T15:43:10;16.00;99.90
38726;DHT22;24474;48.906;8.808;2022-10-13T15:45:36;15.90;99.90
38726;DHT22;24474;48.906;8.808;2022-10-13T15:48:04;16.00;99.90
38726;DHT22;24474;48.906;8.808;2022-10-13T15:50:30;15.90;99.90
38726;DHT22;24474;48.906;8.808;2022-10-13T15:52:56;15.90;99.90
38726;DHT22;24474;48.906;8.808;2022-10-13T15:55:21;15.90;99.90
38726;DHT22;24474;48.906;8.808;2022-10-13T15:57:47;15.90;99.90
38726;DHT22;24474;48.906;8.808;2022-10-13T16:00:14;15.80;99.90
38726;DHT22;24474;48.906;8.808;2022-10-13T16:02:40;15.80;99.90
38726;DHT22;24474;48.906;8.808;2022-10-13T16:05:08;15.80;99.90
38726;DHT22;24474;48.906;8.808;2022-10-13T16:07:34;15.80;99.90
38726;DHT22;24474;48.906;8.808;2022-10-13T16:10:00;15.80;99.90
38726;DHT22;24474;48.906;8.808;2022-10-13T16:12:29;15.80;99.90
38726;DHT22;24474;48.906;8.808;2022-10-13T16:14:55;15.70;99.90
38726;DHT22;24474;48.906;8.808;2022-10-13T16:17:21;15.70;99.90
38726;DHT22;24474;48.906;8.808;2022-10-13T16:19:46;15.70;99.90
38726;DHT22;24474;48.906;8.808;2022-10-13T16:22:13;15.70;99.90
38726;DHT22;24474;48.906;8.808;2022-10-13T16:24:38;15.70;99.90
38726;DHT22;24474;48.906;8.808;2022-10-13T16:27:04;15.60;99.90
38726;DHT22;24474;48.906;8.808;2022-10-13T16:29:30;15.60;99.90
38726;DHT22;24474;48.906;8.808;2022-10-13T16:31:56;15.60;99.90
38726;DHT22;24474;48.906;8.808;2022-10-13T16:34:21;15.60;99.90
38726;DHT22;24474;48.906;8.808;2022-10-13T16:36:48;15.60;99.90
38726;DHT22;24474;48.906;8.808;2022-10-13T16:39:13;15.50;99.90
38726;DHT22;24474;48.906;8.808;2022-10-13T16:41:39;15.50;99.90
38726;DHT22;24474;48.906;8.808;2022-10-13T16:44:05;15.50;99.90
38726;DHT22;24474;48.906;8.808;2022-10-13T16:46:31;15.40;99.90
38726;DHT22;24474;48.906;8.808;2022-10-13T16:48:57;15.40;99.90
38726;DHT22;24474;48.906;8.808;2022-10-13T16:51:25;15.40;99.90
38726;DHT22;24474;48.906;8.808;2022-10-13T16:53:53;15.40;99.90
38726;DHT22;24474;48.906;8.808;2022-10-13T16:56:19;15.40;99.90
38726;DHT22;24474;48.906;8.808;2022-10-13T16:58:57;15.30;99.90
38726;DHT22;24474;48.906;8.808;2022-10-13T17:01:25;15.30;99.90
38726;DHT22;24474;48.906;8.808;2022-10-13T17:03:59;15.30;99.90
38726;DHT22;24474;48.906;8.808;2022-10-13T17:06:26;15.30;99.90
38726;DHT22;24474;48.906;8.808;2022-10-13T17:08:52;15.30;99.90
38726;DHT22;24474;48.906;8.808;2022-10-13T17:11:23;15.20;99.90
38726;DHT22;24474;48.906;8.808;2022-10-13T17:13:49;15.20;99.90
38726;DHT22;24474;48.906;8.808;2022-10-13T17:16:15;15.20;99.90
38726;DHT22;24474;48.906;8.808;2022-10-13T17:18:41;15.10;99.90
38726;DHT22;24474;48.906;8.808;2022-10-13T17:21:09;15.20;99.90